sensor_id;sensor_type;location;lat;lon;timestamp;temperature;humidity
13713;DHT22;6928;50.546;7.120;2023-04-19T00:01:29;12.04;71.80
13713;DHT22;6928;50.546;7.120;2023-04-19T00:03:56;12.04;71.84
13713;DHT22;6928;50.546;7.120;2023-04-19T00:06:22;12.04;72.17
13713;DHT22;6928;50.546;7.120;2023-04-19T00:08:50;11.99;71.92
13713;DHT22;6928;50.546;7.120;2023-04-19T00:11:17;11.95;72.17
13713;DHT22;6928;50.546;7.120;2023-04-19T00:13:45;11.99;71.98
13713;DHT22;6928;50.546;7.120;2023-04-19T00:16:13;12.02;72.11
13713;DHT22;6928;50.546;7.120;2023-04-19T00:18:40;11.98;72.26
13713;DHT22;6928;50.546;7.120;2023-04-19T00:21:07;11.94;72.54
13713;DHT22;6928;50.546;7.120;2023-04-19T00:23:34;11.91;72.71
13713;DHT22;6928;50.546;7.120;2023-04-19T00:26:02;11.95;72.86
13713;DHT22;6928;50.546;7.120;2023-04-19T00:28:29;11.88;72.92
13713;DHT22;6928;50.546;7.120;2023-04-19T00:30:57;11.86;73.24
13713;DHT22;6928;50.546;7.120;2023-04-19T00:33:24;11.84;73.27
13713;DHT22;6928;50.546;7.120;2023-04-19T00:35:50;11.83;73.07
13713;DHT22;6928;50.546;7.120;2023-04-19T00:38:17;11.84;73.06
13713;DHT22;6928;50.546;7.120;2023-04-19T00:40:44;11.87;73.01
13713;DHT22;6928;50.546;7.120;2023-04-19T00:43:11;11.78;73.47
13713;DHT22;6928;50.546;7.120;2023-04-19T00:45:38;11.74;73.31
13713;DHT22;6928;50.546;7.120;2023-04-19T00:48:06;11.86;73.02
13713;DHT22;6928;50.546;7.120;2023-04-19T00:50:33;11.71;73.26
13713;DHT22;6928;50.546;7.120;2023-04-19T00:53:00;11.77;73.23
13713;DHT22;6928;50.546;7.120;2023-04-19T00:55:28;11.77;73.14
13713;DHT22;6928;50.546;7.120;2023-04-19T00:57:54;11.71;73.18
13713;DHT22;6928;50.546;7.120;2023-04-19T01:00:21;11.69;73.20
13713;DHT22;6928;50.546;7.120;2023-04-19T01:02:48;11.69;73.17
13713;DHT22;6928;50.546;7.120;2023-04-19T01:05:16;11.56;73.43
13713;DHT22;6928;50.546;7.120;2023-04-19T01:07:43;11.52;73.72
13713;DHT22;6928;50.546;7.120;2023-04-19T01:10:10;11.52;73.64
13713;DHT22;6928;50.546;7.120;2023-04-19T01:12:36;11.57;73.51
13713;DHT22;6928;50.546;7.120;2023-04-19T01:15:05;11.45;73.77
13713;DHT22;6928;50.546;7.120;2023-04-19T01:17:31;11.40;73.98
13713;DHT22;6928;50.546;7.120;2023-04-19T01:19:59;11.34;74.03
13713;DHT22;6928;50.546;7.120;2023-04-19T01:22:27;11.36;74.12
13713;DHT22;6928;50.546;7.120;2023-04-19T01:24:56;11.23;74.49
13713;DHT22;6928;50.546;7.120;2023-04-19T01:27:24;11.22;74.51
13713;DHT22;6928;50.546;7.120;2023-04-19T01:29:51;11.22;74.48
13713;DHT22;6928;50.546;7.120;2023-04-19T01:32:17;11.25;74.56
13713;DHT22;6928;50.546;7.120;2023-04-19T01:34:44;11.25;74.74
13713;DHT22;6928;50.546;7.120;2023-04-19T01:37:11;11.16;75.10
13713;DHT22;6928;50.546;7.120;2023-04-19T01:39:39;11.22;74.89
13713;DHT22;6928;50.546;7.120;2023-04-19T01:42:06;11.01;75.58
13713;DHT22;6928;50.546;7.120;2023-04-19T01:44:32;11.04;75.60
13713;DHT22;6928;50.546;7.120;2023-04-19T01:46:59;10.98;75.76
13713;DHT22;6928;50.546;7.120;2023-04-19T01:49:26;10.88;76.12
13713;DHT22;6928;50.546;7.120;2023-04-19T01:51:52;10.87;76.35
13713;DHT22;6928;50.546;7.120;2023-04-19T01:54:19;10.76;76.63
13713;DHT22;6928;50.546;7.120;2023-04-19T01:56:47;10.77;76.71
13713;DHT22;6928;50.546;7.120;2023-04-19T01:59:14;10.67;76.97
13713;DHT22;6928;50.546;7.120;2023-04-19T02:01:40;10.68;76.98
13713;DHT22;6928;50.546;7.120;2023-04-19T02:04:08;10.71;76.99
13713;DHT22;6928;50.546;7.120;2023-04-19T02:06:34;10.74;76.83
13713;DHT22;6928;50.546;7.120;2023-04-19T02:09:01;10.67;77.03
13713;DHT22;6928;50.546;7.120;2023-04-19T02:11:28;10.46;77.90
13713;DHT22;6928;50.546;7.120;2023-04-19T02:13:56;10.23;78.81
13713;DHT22;6928;50.546;7.120;2023-04-19T02:16:23;10.57;77.74
13713;DHT22;6928;50.546;7.120;2023-04-19T02:18:49;10.19;79.03
13713;DHT22;6928;50.546;7.120;2023-04-19T02:21:16;10.01;79.64
13713;DHT22;6928;50.546;7.120;2023-04-19T02:23:43;10.34;78.65
13713;DHT22;6928;50.546;7.120;2023-04-19T02:26:10;10.40;78.16
13713;DHT22;6928;50.546;7.120;2023-04-19T02:28:37;10.39;78.22
13713;DHT22;6928;50.546;7.120;2023-04-19T02:31:06;10.32;78.40
13713;DHT22;6928;50.546;7.120;2023-04-19T02:33:32;10.33;78.35
13713;DHT22;6928;50.546;7.120;2023-04-19T02:35:59;10.28;78.83
13713;DHT22;6928;50.546;7.120;2023-04-19T02:38:26;10.32;78.41
13713;DHT22;6928;50.546;7.120;2023-04-19T02:40:52;10.09;79.11
13713;DHT22;6928;50.546;7.120;2023-04-19T02:43:19;10.26;78.61
13713;DHT22;6928;50.546;7.120;2023-04-19T02:45:46;10.08;79.06
13713;DHT22;6928;50.546;7.120;2023-04-19T02:48:14;9.79;80.29
13713;DHT22;6928;50.546;7.120;2023-04-19T02:50:41;9.95;79.88
13713;DHT22;6928;50.546;7.120;2023-04-19T02:53:08;9.87;79.76
13713;DHT22;6928;50.546;7.120;2023-04-19T02:55:34;9.82;80.00
13713;DHT22;6928;50.546;7.120;2023-04-19T02:58:01;9.62;80.88
13713;DHT22;6928;50.546;7.120;2023-04-19T03:00:28;9.62;81.27
13713;DHT22;6928;50.546;7.120;2023-04-19T03:02:55;9.52;80.86
13713;DHT22;6928;50.546;7.120;2023-04-19T03:05:23;9.54;81.02
13713;DHT22;6928;50.546;7.120;2023-04-19T03:07:50;9.41;81.25
13713;DHT22;6928;50.546;7.120;2023-04-19T03:10:17;9.37;81.77
13713;DHT22;6928;50.546;7.120;2023-04-19T03:12:43;9.37;81.36
13713;DHT22;6928;50.546;7.120;2023-04-19T03:15:10;9.24;82.19
13713;DHT22;6928;50.546;7.120;2023-04-19T03:17:37;9.20;82.71
13713;DHT22;6928;50.546;7.120;2023-04-19T03:20:05;9.15;82.01
13713;DHT22;6928;50.546;7.120;2023-04-19T03:22:35;9.08;82.80
13713;DHT22;6928;50.546;7.120;2023-04-19T03:25:02;9.30;82.28
13713;DHT22;6928;50.546;7.120;2023-04-19T03:27:29;9.36;81.84
13713;DHT22;6928;50.546;7.120;2023-04-19T03:29:56;9.30;81.87
13713;DHT22;6928;50.546;7.120;2023-04-19T03:32:22;8.89;83.76
13713;DHT22;6928;50.546;7.120;2023-04-19T03:34:49;8.81;84.46
13713;DHT22;6928;50.546;7.120;2023-04-19T03:37:16;9.09;83.29
13713;DHT22;6928;50.546;7.120;2023-04-19T03:39:44;9.10;83.13
13713;DHT22;6928;50.546;7.120;2023-04-19T03:42:11;8.89;83.98
13713;DHT22;6928;50.546;7.120;2023-04-19T03:44:37;9.00;83.85
13713;DHT22;6928;50.546;7.120;2023-04-19T03:47:04;9.30;82.64
13713;DHT22;6928;50.546;7.120;2023-04-19T03:49:31;9.26;82.78
13713;DHT22;6928;50.546;7.120;2023-04-19T03:51:57;9.31;82.70
13713;DHT22;6928;50.546;7.120;2023-04-19T03:54:24;9.23;83.23
13713;DHT22;6928;50.546;7.120;2023-04-19T03:56:52;9.37;82.60
13713;DHT22;6928;50.546;7.120;2023-04-19T03:59:19;9.16;83.89
13713;DHT22;6928;50.546;7.120;2023-04-19T04:01:46;9.37;82.81
13713;DHT22;6928;50.546;7.120;2023-04-19T04:04:13;9.20;83.54
13713;DHT22;6928;50.546;7.120;2023-04-19T04:06:39;9.31;83.38
13713;DHT22;6928;50.546;7.120;2023-04-19T04:09:06;9.44;82.67
13713;DHT22;6928;50.546;7.120;2023-04-19T04:11:33;9.40;83.02
13713;DHT22;6928;50.546;7.120;2023-04-19T04:14:01;9.33;83.46
13713;DHT22;6928;50.546;7.120;2023-04-19T04:16:27;9.34;83.34
13713;DHT22;6928;50.546;7.120;2023-04-19T04:18:54;9.40;83.07
13713;DHT22;6928;50.546;7.120;2023-04-19T04:21:21;9.30;83.74
13713;DHT22;6928;50.546;7.120;2023-04-19T04:23:49;9.23;83.80
13713;DHT22;6928;50.546;7.120;2023-04-19T04:26:17;9.19;84.18
13713;DHT22;6928;50.546;7.120;2023-04-19T04:28:44;9.26;84.19
13713;DHT22;6928;50.546;7.120;2023-04-19T04:31:12;9.30;83.68
13713;DHT22;6928;50.546;7.120;2023-04-19T04:33:42;9.39;83.57
13713;DHT22;6928;50.546;7.120;2023-04-19T04:36:10;9.60;83.27
13713;DHT22;6928;50.546;7.120;2023-04-19T04:38:37;9.58;83.12
13713;DHT22;6928;50.546;7.120;2023-04-19T04:41:04;9.58;83.27
13713;DHT22;6928;50.546;7.120;2023-04-19T04:43:32;9.57;83.56
13713;DHT22;6928;50.546;7.120;2023-04-19T04:45:59;9.60;83.34
13713;DHT22;6928;50.546;7.120;2023-04-19T04:48:27;9.55;83.29
13713;DHT22;6928;50.546;7.120;2023-04-19T04:50:55;9.54;83.52
13713;DHT22;6928;50.546;7.120;2023-04-19T04:53:25;9.71;82.86
13713;DHT22;6928;50.546;7.120;2023-04-19T04:55:52;9.70;83.06
13713;DHT22;6928;50.546;7.120;2023-04-19T04:58:19;9.72;82.79
13713;DHT22;6928;50.546;7.120;2023-04-19T05:00:46;9.72;82.85
13713;DHT22;6928;50.546;7.120;2023-04-19T05:03:13;9.71;83.21
13713;DHT22;6928;50.546;7.120;2023-04-19T05:05:42;9.70;83.34
13713;DHT22;6928;50.546;7.120;2023-04-19T05:08:09;9.72;83.06
13713;DHT22;6928;50.546;7.120;2023-04-19T05:10:35;9.82;83.09
13713;DHT22;6928;50.546;7.120;2023-04-19T05:13:02;9.89;82.74
13713;DHT22;6928;50.546;7.120;2023-04-19T05:15:29;9.98;82.54
13713;DHT22;6928;50.546;7.120;2023-04-19T05:17:56;9.94;82.45
13713;DHT22;6928;50.546;7.120;2023-04-19T05:20:22;9.85;82.82
13713;DHT22;6928;50.546;7.120;2023-04-19T05:22:56;9.81;82.93
13713;DHT22;6928;50.546;7.120;2023-04-19T05:25:23;9.82;83.04
13713;DHT22;6928;50.546;7.120;2023-04-19T05:27:50;9.75;83.31
13713;DHT22;6928;50.546;7.120;2023-04-19T05:30:17;9.82;82.87
13713;DHT22;6928;50.546;7.120;2023-04-19T05:32:43;9.82;83.22
13713;DHT22;6928;50.546;7.120;2023-04-19T05:35:10;9.94;82.50
13713;DHT22;6928;50.546;7.120;2023-04-19T05:37:38;9.78;83.55
13713;DHT22;6928;50.546;7.120;2023-04-19T05:40:08;9.87;83.19
13713;DHT22;6928;50.546;7.120;2023-04-19T05:42:35;9.88;83.38
13713;DHT22;6928;50.546;7.120;2023-04-19T05:45:03;9.91;83.10
13713;DHT22;6928;50.546;7.120;2023-04-19T05:47:30;9.97;83.09
13713;DHT22;6928;50.546;7.120;2023-04-19T05:49:57;9.92;83.35
13713;DHT22;6928;50.546;7.120;2023-04-19T05:52:23;9.97;83.34
13713;DHT22;6928;50.546;7.120;2023-04-19T05:54:50;10.06;83.09
13713;DHT22;6928;50.546;7.120;2023-04-19T05:57:18;10.06;83.03
13713;DHT22;6928;50.546;7.120;2023-04-19T05:59:45;10.01;83.42
13713;DHT22;6928;50.546;7.120;2023-04-19T06:02:11;10.06;83.21
13713;DHT22;6928;50.546;7.120;2023-04-19T06:04:38;10.01;83.70
13713;DHT22;6928;50.546;7.120;2023-04-19T06:07:06;10.06;83.51
13713;DHT22;6928;50.546;7.120;2023-04-19T06:09:33;10.12;83.38
13713;DHT22;6928;50.546;7.120;2023-04-19T06:11:59;10.10;83.45
13713;DHT22;6928;50.546;7.120;2023-04-19T06:14:28;10.10;83.64
13713;DHT22;6928;50.546;7.120;2023-04-19T06:16:54;10.16;83.44
13713;DHT22;6928;50.546;7.120;2023-04-19T06:19:21;10.29;82.92
13713;DHT22;6928;50.546;7.120;2023-04-19T06:21:48;10.32;82.72
13713;DHT22;6928;50.546;7.120;2023-04-19T06:24:15;10.26;83.40
13713;DHT22;6928;50.546;7.120;2023-04-19T06:26:42;10.26;83.89
13713;DHT22;6928;50.546;7.120;2023-04-19T06:29:09;10.28;83.50
13713;DHT22;6928;50.546;7.120;2023-04-19T06:31:37;10.23;83.75
13713;DHT22;6928;50.546;7.120;2023-04-19T06:34:04;10.30;83.51
13713;DHT22;6928;50.546;7.120;2023-04-19T06:36:31;10.30;83.54
13713;DHT22;6928;50.546;7.120;2023-04-19T06:38:58;10.33;83.58
13713;DHT22;6928;50.546;7.120;2023-04-19T06:41:25;10.34;83.59
13713;DHT22;6928;50.546;7.120;2023-04-19T06:43:52;10.39;83.42
13713;DHT22;6928;50.546;7.120;2023-04-19T06:46:18;10.28;83.97
13713;DHT22;6928;50.546;7.120;2023-04-19T06:48:47;10.30;84.30
13713;DHT22;6928;50.546;7.120;2023-04-19T06:51:13;10.34;84.45
13713;DHT22;6928;50.546;7.120;2023-04-19T06:53:40;10.46;83.86
13713;DHT22;6928;50.546;7.120;2023-04-19T06:56:09;10.46;83.78
13713;DHT22;6928;50.546;7.120;2023-04-19T06:58:37;10.49;83.84
13713;DHT22;6928;50.546;7.120;2023-04-19T07:01:04;10.50;84.20
13713;DHT22;6928;50.546;7.120;2023-04-19T07:03:30;10.51;83.81
13713;DHT22;6928;50.546;7.120;2023-04-19T07:05:58;10.53;83.88
13713;DHT22;6928;50.546;7.120;2023-04-19T07:08:25;10.56;83.86
13713;DHT22;6928;50.546;7.120;2023-04-19T07:10:52;10.63;83.74
13713;DHT22;6928;50.546;7.120;2023-04-19T07:13:21;10.68;83.55
13713;DHT22;6928;50.546;7.120;2023-04-19T07:15:47;10.70;83.46
13713;DHT22;6928;50.546;7.120;2023-04-19T07:18:14;10.73;83.25
13713;DHT22;6928;50.546;7.120;2023-04-19T07:20:41;10.76;83.15
13713;DHT22;6928;50.546;7.120;2023-04-19T07:23:14;10.80;83.03
13713;DHT22;6928;50.546;7.120;2023-04-19T07:25:41;10.84;82.98
13713;DHT22;6928;50.546;7.120;2023-04-19T07:28:08;10.88;83.06
13713;DHT22;6928;50.546;7.120;2023-04-19T07:30:35;10.95;82.82
13713;DHT22;6928;50.546;7.120;2023-04-19T07:33:02;11.01;82.47
13713;DHT22;6928;50.546;7.120;2023-04-19T07:35:33;11.07;82.20
13713;DHT22;6928;50.546;7.120;2023-04-19T07:38:00;11.11;82.04
13713;DHT22;6928;50.546;7.120;2023-04-19T07:40:28;11.16;81.72
13713;DHT22;6928;50.546;7.120;2023-04-19T07:42:55;11.20;81.50
13713;DHT22;6928;50.546;7.120;2023-04-19T07:45:22;11.28;81.30
13713;DHT22;6928;50.546;7.120;2023-04-19T07:47:49;11.38;81.07
13713;DHT22;6928;50.546;7.120;2023-04-19T07:50:16;11.40;80.94
13713;DHT22;6928;50.546;7.120;2023-04-19T07:52:43;11.36;79.96
13713;DHT22;6928;50.546;7.120;2023-04-19T07:55:09;11.42;80.21
13713;DHT22;6928;50.546;7.120;2023-04-19T07:57:38;11.49;80.01
13713;DHT22;6928;50.546;7.120;2023-04-19T08:00:06;11.50;80.14
13713;DHT22;6928;50.546;7.120;2023-04-19T08:02:35;11.53;80.02
13713;DHT22;6928;50.546;7.120;2023-04-19T08:05:02;11.55;79.82
13713;DHT22;6928;50.546;7.120;2023-04-19T08:07:29;11.60;79.25
13713;DHT22;6928;50.546;7.120;2023-04-19T08:09:56;11.76;79.04
13713;DHT22;6928;50.546;7.120;2023-04-19T08:12:23;11.87;78.60
13713;DHT22;6928;50.546;7.120;2023-04-19T08:14:51;12.02;78.32
13713;DHT22;6928;50.546;7.120;2023-04-19T08:17:17;11.87;77.73
13713;DHT22;6928;50.546;7.120;2023-04-19T08:19:46;12.42;77.55
13713;DHT22;6928;50.546;7.120;2023-04-19T08:22:14;12.65;76.62
13713;DHT22;6928;50.546;7.120;2023-04-19T08:24:41;12.69;75.99
13713;DHT22;6928;50.546;7.120;2023-04-19T08:27:08;12.87;76.44
13713;DHT22;6928;50.546;7.120;2023-04-19T08:29:35;13.15;75.39
13713;DHT22;6928;50.546;7.120;2023-04-19T08:32:04;13.24;74.60
13713;DHT22;6928;50.546;7.120;2023-04-19T08:34:33;13.03;75.14
13713;DHT22;6928;50.546;7.120;2023-04-19T08:37:00;12.97;74.91
13713;DHT22;6928;50.546;7.120;2023-04-19T08:39:27;12.81;75.34
13713;DHT22;6928;50.546;7.120;2023-04-19T08:41:55;12.90;75.90
13713;DHT22;6928;50.546;7.120;2023-04-19T08:44:22;13.32;74.90
13713;DHT22;6928;50.546;7.120;2023-04-19T08:46:49;12.97;73.94
13713;DHT22;6928;50.546;7.120;2023-04-19T08:49:18;13.25;74.79
13713;DHT22;6928;50.546;7.120;2023-04-19T08:51:47;13.23;74.76
13713;DHT22;6928;50.546;7.120;2023-04-19T08:54:14;13.20;74.06
13713;DHT22;6928;50.546;7.120;2023-04-19T08:56:41;13.20;74.17
13713;DHT22;6928;50.546;7.120;2023-04-19T08:59:08;13.25;73.81
13713;DHT22;6928;50.546;7.120;2023-04-19T09:01:35;13.24;73.59
13713;DHT22;6928;50.546;7.120;2023-04-19T09:04:03;13.08;73.40
13713;DHT22;6928;50.546;7.120;2023-04-19T09:06:36;13.14;72.89
13713;DHT22;6928;50.546;7.120;2023-04-19T09:09:16;12.99;73.33
13713;DHT22;6928;50.546;7.120;2023-04-19T09:11:43;13.13;73.01
13713;DHT22;6928;50.546;7.120;2023-04-19T09:14:12;13.04;72.90
13713;DHT22;6928;50.546;7.120;2023-04-19T09:16:39;13.15;72.19
13713;DHT22;6928;50.546;7.120;2023-04-19T09:19:06;13.25;71.98
13713;DHT22;6928;50.546;7.120;2023-04-19T09:21:35;13.23;71.92
13713;DHT22;6928;50.546;7.120;2023-04-19T09:24:02;13.25;72.04
13713;DHT22;6928;50.546;7.120;2023-04-19T09:26:30;13.38;71.99
13713;DHT22;6928;50.546;7.120;2023-04-19T09:28:58;13.41;70.52
13713;DHT22;6928;50.546;7.120;2023-04-19T09:31:27;13.41;70.55
13713;DHT22;6928;50.546;7.120;2023-04-19T09:33:54;13.56;70.63
13713;DHT22;6928;50.546;7.120;2023-04-19T09:36:32;13.72;69.39
13713;DHT22;6928;50.546;7.120;2023-04-19T09:39:01;13.61;69.68
13713;DHT22;6928;50.546;7.120;2023-04-19T09:41:27;13.69;69.37
13713;DHT22;6928;50.546;7.120;2023-04-19T09:44:08;13.61;69.08
13713;DHT22;6928;50.546;7.120;2023-04-19T09:46:36;13.72;68.98
13713;DHT22;6928;50.546;7.120;2023-04-19T09:49:20;13.87;69.09
13713;DHT22;6928;50.546;7.120;2023-04-19T09:51:49;14.12;68.39
13713;DHT22;6928;50.546;7.120;2023-04-19T09:54:19;14.50;67.23
13713;DHT22;6928;50.546;7.120;2023-04-19T09:56:47;14.31;67.00
13713;DHT22;6928;50.546;7.120;2023-04-19T09:59:14;14.51;66.53
13713;DHT22;6928;50.546;7.120;2023-04-19T10:01:43;14.31;66.81
13713;DHT22;6928;50.546;7.120;2023-04-19T10:04:12;14.62;67.18
13713;DHT22;6928;50.546;7.120;2023-04-19T10:06:47;14.78;66.20
13713;DHT22;6928;50.546;7.120;2023-04-19T10:09:16;14.38;65.09
13713;DHT22;6928;50.546;7.120;2023-04-19T10:11:47;14.14;65.15
13713;DHT22;6928;50.546;7.120;2023-04-19T10:14:16;14.27;64.38
13713;DHT22;6928;50.546;7.120;2023-04-19T10:16:45;14.21;64.46
13713;DHT22;6928;50.546;7.120;2023-04-19T10:19:15;14.24;63.25
13713;DHT22;6928;50.546;7.120;2023-04-19T10:21:43;14.34;63.30
13713;DHT22;6928;50.546;7.120;2023-04-19T10:24:13;14.51;62.13
13713;DHT22;6928;50.546;7.120;2023-04-19T10:27:07;14.78;61.26
13713;DHT22;6928;50.546;7.120;2023-04-19T10:29:58;14.72;60.56
13713;DHT22;6928;50.546;7.120;2023-04-19T10:32:30;14.65;59.98
13713;DHT22;6928;50.546;7.120;2023-04-19T10:35:07;14.50;60.19
13713;DHT22;6928;50.546;7.120;2023-04-19T10:37:34;14.76;59.15
13713;DHT22;6928;50.546;7.120;2023-04-19T10:40:06;14.86;57.71
13713;DHT22;6928;50.546;7.120;2023-04-19T10:43:14;15.07;57.87
13713;DHT22;6928;50.546;7.120;2023-04-19T10:45:42;14.96;58.04
13713;DHT22;6928;50.546;7.120;2023-04-19T10:48:34;14.75;57.42
13713;DHT22;6928;50.546;7.120;2023-04-19T10:51:07;14.93;57.49
13713;DHT22;6928;50.546;7.120;2023-04-19T10:53:54;14.93;58.67
13713;DHT22;6928;50.546;7.120;2023-04-19T10:56:56;14.76;58.83
13713;DHT22;6928;50.546;7.120;2023-04-19T10:59:25;14.85;59.10
13713;DHT22;6928;50.546;7.120;2023-04-19T11:01:55;15.14;59.19
13713;DHT22;6928;50.546;7.120;2023-04-19T11:07:21;15.30;59.62
13713;DHT22;6928;50.546;7.120;2023-04-19T11:09:48;15.33;57.82
13713;DHT22;6928;50.546;7.120;2023-04-19T11:12:18;15.07;56.16
13713;DHT22;6928;50.546;7.120;2023-04-19T11:14:49;15.65;56.92
13713;DHT22;6928;50.546;7.120;2023-04-19T11:17:18;15.67;54.86
13713;DHT22;6928;50.546;7.120;2023-04-19T11:19:52;15.82;54.03
13713;DHT22;6928;50.546;7.120;2023-04-19T11:22:25;16.15;53.80
13713;DHT22;6928;50.546;7.120;2023-04-19T11:24:52;15.43;53.16
13713;DHT22;6928;50.546;7.120;2023-04-19T11:27:19;15.58;54.03
13713;DHT22;6928;50.546;7.120;2023-04-19T11:29:47;15.86;52.29
13713;DHT22;6928;50.546;7.120;2023-04-19T11:32:14;15.58;51.34
13713;DHT22;6928;50.546;7.120;2023-04-19T11:34:41;15.72;51.30
13713;DHT22;6928;50.546;7.120;2023-04-19T11:37:09;16.04;52.04
13713;DHT22;6928;50.546;7.120;2023-04-19T11:39:44;16.02;45.36
13713;DHT22;6928;50.546;7.120;2023-04-19T11:42:17;15.82;45.49
13713;DHT22;6928;50.546;7.120;2023-04-19T11:44:49;16.12;46.57
13713;DHT22;6928;50.546;7.120;2023-04-19T11:47:17;16.28;43.22
13713;DHT22;6928;50.546;7.120;2023-04-19T11:49:44;16.34;45.02
13713;DHT22;6928;50.546;7.120;2023-04-19T11:52:11;16.34;45.00
13713;DHT22;6928;50.546;7.120;2023-04-19T11:54:37;16.46;44.40
13713;DHT22;6928;50.546;7.120;2023-04-19T11:57:05;16.22;41.90
13713;DHT22;6928;50.546;7.120;2023-04-19T11:59:34;16.51;44.08
13713;DHT22;6928;50.546;7.120;2023-04-19T12:02:07;16.51;43.90
13713;DHT22;6928;50.546;7.120;2023-04-19T12:04:35;16.61;43.41
13713;DHT22;6928;50.546;7.120;2023-04-19T12:07:04;16.30;42.55
13713;DHT22;6928;50.546;7.120;2023-04-19T12:09:33;16.15;43.18
13713;DHT22;6928;50.546;7.120;2023-04-19T12:12:00;16.26;42.45
13713;DHT22;6928;50.546;7.120;2023-04-19T12:14:28;16.20;42.50
13713;DHT22;6928;50.546;7.120;2023-04-19T12:17:11;16.18;41.02
13713;DHT22;6928;50.546;7.120;2023-04-19T12:19:45;16.57;39.79
13713;DHT22;6928;50.546;7.120;2023-04-19T12:22:15;16.91;38.19
13713;DHT22;6928;50.546;7.120;2023-04-19T12:24:44;16.42;37.73
13713;DHT22;6928;50.546;7.120;2023-04-19T12:27:11;16.49;35.52
13713;DHT22;6928;50.546;7.120;2023-04-19T12:29:38;16.39;34.27
13713;DHT22;6928;50.546;7.120;2023-04-19T12:32:05;16.15;34.86
13713;DHT22;6928;50.546;7.120;2023-04-19T12:34:33;16.36;35.76
13713;DHT22;6928;50.546;7.120;2023-04-19T12:37:00;16.42;36.04
13713;DHT22;6928;50.546;7.120;2023-04-19T12:39:28;16.68;36.61
13713;DHT22;6928;50.546;7.120;2023-04-19T12:41:55;16.83;36.63
13713;DHT22;6928;50.546;7.120;2023-04-19T12:44:22;16.92;36.12
13713;DHT22;6928;50.546;7.120;2023-04-19T12:46:48;16.63;36.76
13713;DHT22;6928;50.546;7.120;2023-04-19T12:49:17;16.97;36.49
13713;DHT22;6928;50.546;7.120;2023-04-19T12:51:46;17.02;35.97
13713;DHT22;6928;50.546;7.120;2023-04-19T12:54:14;16.84;37.38
13713;DHT22;6928;50.546;7.120;2023-04-19T12:56:41;17.14;37.68
13713;DHT22;6928;50.546;7.120;2023-04-19T12:59:07;17.04;37.58
13713;DHT22;6928;50.546;7.120;2023-04-19T13:01:34;17.19;36.95
13713;DHT22;6928;50.546;7.120;2023-04-19T13:04:01;17.00;36.18
13713;DHT22;6928;50.546;7.120;2023-04-19T13:06:27;17.32;36.96
13713;DHT22;6928;50.546;7.120;2023-04-19T13:08:55;16.85;36.73
13713;DHT22;6928;50.546;7.120;2023-04-19T13:11:22;16.87;37.91
13713;DHT22;6928;50.546;7.120;2023-04-19T13:13:50;16.44;37.94
13713;DHT22;6928;50.546;7.120;2023-04-19T13:16:18;16.46;38.84
13713;DHT22;6928;50.546;7.120;2023-04-19T13:18:45;16.71;42.63
13713;DHT22;6928;50.546;7.120;2023-04-19T13:21:12;16.56;44.66
13713;DHT22;6928;50.546;7.120;2023-04-19T13:23:41;16.33;45.32
13713;DHT22;6928;50.546;7.120;2023-04-19T13:26:10;16.34;46.13
13713;DHT22;6928;50.546;7.120;2023-04-19T13:28:38;16.43;45.67
13713;DHT22;6928;50.546;7.120;2023-04-19T13:31:05;16.16;46.51
13713;DHT22;6928;50.546;7.120;2023-04-19T13:33:32;15.98;45.65
13713;DHT22;6928;50.546;7.120;2023-04-19T13:35:59;15.92;43.94
13713;DHT22;6928;50.546;7.120;2023-04-19T13:38:25;16.12;43.70
13713;DHT22;6928;50.546;7.120;2023-04-19T13:40:52;16.18;42.73
13713;DHT22;6928;50.546;7.120;2023-04-19T13:43:20;16.56;43.35
13713;DHT22;6928;50.546;7.120;2023-04-19T13:45:47;16.61;42.69
13713;DHT22;6928;50.546;7.120;2023-04-19T13:48:14;16.71;43.14
13713;DHT22;6928;50.546;7.120;2023-04-19T13:50:41;16.26;41.47
13713;DHT22;6928;50.546;7.120;2023-04-19T13:53:07;16.36;42.35
13713;DHT22;6928;50.546;7.120;2023-04-19T13:55:34;16.54;41.53
13713;DHT22;6928;50.546;7.120;2023-04-19T13:58:01;16.43;40.62
13713;DHT22;6928;50.546;7.120;2023-04-19T14:00:29;16.77;39.58
13713;DHT22;6928;50.546;7.120;2023-04-19T14:02:56;16.75;39.25
13713;DHT22;6928;50.546;7.120;2023-04-19T14:05:23;17.15;37.18
13713;DHT22;6928;50.546;7.120;2023-04-19T14:07:49;16.81;36.44
13713;DHT22;6928;50.546;7.120;2023-04-19T14:10:17;16.44;35.76
13713;DHT22;6928;50.546;7.120;2023-04-19T14:12:44;16.68;35.37
13713;DHT22;6928;50.546;7.120;2023-04-19T14:15:11;16.65;35.54
13713;DHT22;6928;50.546;7.120;2023-04-19T14:17:39;16.50;34.52
13713;DHT22;6928;50.546;7.120;2023-04-19T14:20:06;16.44;33.88
13713;DHT22;6928;50.546;7.120;2023-04-19T14:22:33;16.23;33.03
13713;DHT22;6928;50.546;7.120;2023-04-19T14:25:00;16.36;33.80
13713;DHT22;6928;50.546;7.120;2023-04-19T14:27:28;16.57;34.24
13713;DHT22;6928;50.546;7.120;2023-04-19T14:29:54;16.18;34.17
13713;DHT22;6928;50.546;7.120;2023-04-19T14:32:21;16.39;34.10
13713;DHT22;6928;50.546;7.120;2023-04-19T14:34:49;16.51;32.62
13713;DHT22;6928;50.546;7.120;2023-04-19T14:37:16;16.51;33.11
13713;DHT22;6928;50.546;7.120;2023-04-19T14:39:43;16.32;32.69
13713;DHT22;6928;50.546;7.120;2023-04-19T14:42:11;16.43;32.85
13713;DHT22;6928;50.546;7.120;2023-04-19T14:44:37;16.32;31.75
13713;DHT22;6928;50.546;7.120;2023-04-19T14:47:04;16.11;32.34
13713;DHT22;6928;50.546;7.120;2023-04-19T14:49:31;16.46;31.83
13713;DHT22;6928;50.546;7.120;2023-04-19T14:51:59;16.22;31.87
13713;DHT22;6928;50.546;7.120;2023-04-19T14:54:26;16.57;31.71
13713;DHT22;6928;50.546;7.120;2023-04-19T14:56:52;16.30;31.86
13713;DHT22;6928;50.546;7.120;2023-04-19T14:59:19;16.39;32.51
13713;DHT22;6928;50.546;7.120;2023-04-19T15:01:46;16.49;33.59
13713;DHT22;6928;50.546;7.120;2023-04-19T15:04:13;16.40;33.01
13713;DHT22;6928;50.546;7.120;2023-04-19T15:06:40;16.34;33.25
13713;DHT22;6928;50.546;7.120;2023-04-19T15:09:08;16.36;31.15
13713;DHT22;6928;50.546;7.120;2023-04-19T15:11:35;16.72;32.29
13713;DHT22;6928;50.546;7.120;2023-04-19T15:14:02;16.28;32.00
13713;DHT22;6928;50.546;7.120;2023-04-19T15:16:28;16.59;32.30
13713;DHT22;6928;50.546;7.120;2023-04-19T15:18:55;16.26;32.30
13713;DHT22;6928;50.546;7.120;2023-04-19T15:21:22;16.08;33.39
13713;DHT22;6928;50.546;7.120;2023-04-19T15:23:49;15.98;33.46
13713;DHT22;6928;50.546;7.120;2023-04-19T15:26:17;15.95;33.39
13713;DHT22;6928;50.546;7.120;2023-04-19T15:28:44;15.98;33.02
13713;DHT22;6928;50.546;7.120;2023-04-19T15:31:10;16.11;33.88
13713;DHT22;6928;50.546;7.120;2023-04-19T15:33:37;15.70;33.42
13713;DHT22;6928;50.546;7.120;2023-04-19T15:36:05;15.79;34.09
13713;DHT22;6928;50.546;7.120;2023-04-19T15:38:32;15.84;33.49
13713;DHT22;6928;50.546;7.120;2023-04-19T15:40:59;16.04;34.04
13713;DHT22;6928;50.546;7.120;2023-04-19T15:43:27;15.65;33.49
13713;DHT22;6928;50.546;7.120;2023-04-19T15:45:54;15.58;33.69
13713;DHT22;6928;50.546;7.120;2023-04-19T15:48:21;15.44;33.57
13713;DHT22;6928;50.546;7.120;2023-04-19T15:50:48;15.50;34.59
13713;DHT22;6928;50.546;7.120;2023-04-19T15:53:15;15.70;35.01
13713;DHT22;6928;50.546;7.120;2023-04-19T15:55:42;15.72;33.67
13713;DHT22;6928;50.546;7.120;2023-04-19T15:58:10;15.95;34.50